Time;durP1;ratioP1;P1;durP2;ratioP2;P2;SDS_P1;SDS_P2;PMS_P1;PMS_P2;Temp;Humidity;BMP_temperature;BMP_pressure;BME280_temperature;BME280_humidity;BME280_pressure;Samples;Min_cycle;Max_cycle;Signal;HPM_P1;HPM_P2
2022/01/09 00:01:24;;;;;;;;;2.00;2.00;;;;;-147.17;100.00;50408.97;5018811;28;51249;-58
2022/01/09 00:03:50;;;;;;;;;3.00;1.00;;;;;-147.17;100.00;50393.22;5023535;28;51317;-60
2022/01/09 00:06:15;;;;;;;;;3.00;3.00;;;;;-147.17;100.00;50395.19;5019500;28;51378;-59
2022/01/09 00:08:41;;;;;;;;;2.00;2.00;;;;;-147.17;100.00;50420.78;5022018;28;51165;-59
2022/01/09 00:11:06;;;;;;;;;1.00;1.00;;;;;-147.17;100.00;50383.38;5019348;28;51248;-58
2022/01/09 00:13:32;;;;;;;;;2.67;1.67;;;;;-147.17;100.00;50379.44;5019127;28;51356;-57
2022/01/09 00:15:57;;;;;;;;;1.33;1.00;;;;;-147.17;100.00;50383.38;5015741;28;50931;-58
2022/01/09 00:18:22;;;;;;;;;2.00;1.00;;;;;-147.17;100.00;50412.91;5027456;28;51181;-59
2022/01/09 00:20:48;;;;;;;;;1.00;1.00;;;;;-147.17;100.00;50403.06;5026956;28;51153;-58
2022/01/09 00:23:13;;;;;;;;;2.67;1.00;;;;;-147.17;100.00;50375.50;5025032;28;51223;-57
2022/01/09 00:25:39;;;;;;;;;3.00;2.67;;;;;-147.17;100.00;50387.31;5023836;28;51313;-59
2022/01/09 00:28:04;;;;;;;;;2.00;2.00;;;;;-147.17;100.00;50407.00;5022313;28;51723;-58
2022/01/09 00:30:29;;;;;;;;;3.67;2.00;;;;;-147.17;100.00;50375.50;5024194;28;51262;-59
2022/01/09 00:32:55;;;;;;;;;3.00;1.00;;;;;-147.17;100.00;50393.22;5015086;28;52269;-57
2022/01/09 00:35:21;;;;;;;;;3.33;2.00;;;;;-147.17;100.00;50407.00;5019857;28;50871;-57
2022/01/09 00:37:46;;;;;;;;;3.00;2.33;;;;;-147.17;100.00;50395.19;5020290;28;51209;-57
2022/01/09 00:40:13;;;;;;;;;3.00;2.00;;;;;-147.17;100.00;50391.25;5024247;28;51180;-57
2022/01/09 00:42:39;;;;;;;;;2.00;2.00;;;;;-147.17;100.00;50367.63;5020124;28;51100;-57
2022/01/09 00:45:06;;;;;;;;;2.33;2.00;;;;;-147.17;100.00;50379.44;5023591;28;51178;-57
2022/01/09 00:47:31;;;;;;;;;2.00;2.00;;;;;-147.17;100.00;50369.59;5025020;28;51948;-57
2022/01/09 00:49:58;;;;;;;;;2.00;2.00;;;;;-147.17;100.00;50397.16;5021740;28;51094;-57
2022/01/09 00:52:23;;;;;;;;;1.67;1.67;;;;;-147.17;100.00;50375.50;5027909;28;50978;-57
2022/01/09 00:54:49;;;;;;;;;2.67;1.00;;;;;-147.17;100.00;50381.41;5029174;28;51356;-57
2022/01/09 00:57:14;;;;;;;;;3.67;1.33;;;;;-147.17;100.00;50361.72;5018996;28;52010;-58
2022/01/09 00:59:39;;;;;;;;;2.00;2.00;;;;;-147.17;100.00;50375.50;5018890;28;51329;-59
2022/01/09 01:02:05;;;;;;;;;5.00;3.00;;;;;-147.17;100.00;50373.53;5025359;28;51745;-57
2022/01/09 01:04:30;;;;;;;;;2.75;2.25;;;;;-147.17;100.00;50363.69;5019026;28;51443;-57
2022/01/09 01:06:55;;;;;;;;;2.00;1.67;;;;;-147.17;100.00;50395.19;5022725;28;51924;-58
2022/01/09 01:09:23;;;;;;;;;3.33;2.00;;;;;-147.17;100.00;50403.06;5025870;28;51075;-59
2022/01/09 01:11:49;;;;;;;;;2.00;1.50;;;;;-147.17;100.00;50399.13;5018473;28;51301;-59
2022/01/09 01:14:14;;;;;;;;;1.50;1.50;;;;;-147.17;100.00;50410.94;5023123;28;51150;-58
2022/01/09 01:16:40;;;;;;;;;1.00;1.00;;;;;-147.17;100.00;50418.81;5017470;28;51779;-58
2022/01/09 01:19:06;;;;;;;;;1.00;1.00;;;;;-147.17;100.00;50371.56;5027680;28;51089;-58
2022/01/09 01:21:32;;;;;;;;;2.67;1.33;;;;;-147.17;100.00;50414.88;5022806;28;51361;-59
2022/01/09 01:23:58;;;;;;;;;2.00;2.00;;;;;-147.17;100.00;50414.88;5024034;28;52425;-58
2022/01/09 01:26:24;;;;;;;;;0.00;0.00;;;;;-147.17;100.00;50395.19;5024861;28;51210;-59
2022/01/09 01:28:49;;;;;;;;;1.33;1.00;;;;;-147.17;100.00;50371.56;5017710;28;51399;-59
2022/01/09 01:31:14;;;;;;;;;1.67;1.00;;;;;-147.17;100.00;50395.19;5017404;28;51082;-57
2022/01/09 01:33:40;;;;;;;;;2.00;2.00;;;;;-147.17;100.00;50385.34;5019843;28;50861;-57
2022/01/09 01:36:05;;;;;;;;;0.00;0.00;;;;;-147.17;100.00;50414.88;5021266;28;51962;-58
2022/01/09 01:38:31;;;;;;;;;1.33;0.67;;;;;-147.17;100.00;50407.00;5020574;28;51164;-58
2022/01/09 01:40:58;;;;;;;;;1.00;0.00;;;;;-147.17;100.00;50387.31;5009786;28;53094;-58
2022/01/09 01:43:24;;;;;;;;;1.00;0.67;;;;;-147.17;100.00;50399.13;5016673;28;51306;-57
2022/01/09 01:45:49;;;;;;;;;3.00;1.00;;;;;-147.17;100.00;50381.41;5015339;28;53114;-57
2022/01/09 01:48:15;;;;;;;;;1.00;1.00;;;;;-147.17;100.00;50387.31;5022790;28;51206;-58
2022/01/09 01:50:42;;;;;;;;;2.00;1.00;;;;;-147.17;100.00;50387.31;5018871;28;51708;-57
2022/01/09 01:53:12;;;;;;;;;2.00;1.00;;;;;-147.17;100.00;50351.88;5025731;28;51142;-57
2022/01/09 01:55:40;;;;;;;;;2.33;2.00;;;;;-147.17;100.00;50355.81;5021565;28;51199;-57
2022/01/09 01:58:10;;;;;;;;;2.00;1.00;;;;;-147.17;100.00;50328.25;5024041;28;51179;-57
2022/01/09 02:00:36;;;;;;;;;2.00;2.00;;;;;-147.17;100.00;50345.97;5013330;28;51116;-57
2022/01/09 02:03:03;;;;;;;;;0.50;0.00;;;;;-147.17;100.00;50351.88;5011510;28;51423;-58
2022/01/09 02:05:28;;;;;;;;;2.00;0.50;;;;;-147.17;100.00;50322.34;5007532;28;52019;-59
2022/01/09 02:07:56;;;;;;;;;1.00;1.00;;;;;-147.17;100.00;50357.78;5013056;28;51152;-58
2022/01/09 02:10:22;;;;;;;;;1.75;0.75;;;;;-147.17;100.00;50332.19;5006350;28;51246;-59
2022/01/09 02:12:49;;;;;;;;;1.00;0.33;;;;;-147.17;100.00;50363.69;5025103;28;51444;-59
2022/01/09 02:15:38;;;;;;;;;1.67;0.67;;;;;-147.17;100.00;50353.84;5010320;28;53156;-59
2022/01/09 02:18:09;;;;;;;;;1.33;1.00;;;;;-147.17;100.00;50338.09;5014217;28;51102;-58
2022/01/09 02:20:36;;;;;;;;;1.00;1.00;;;;;-147.17;100.00;50349.91;5008726;28;52072;-59
2022/01/09 02:23:03;;;;;;;;;0.00;0.00;;;;;-147.17;100.00;50342.03;5010529;28;51218;-58
2022/01/09 02:25:29;;;;;;;;;1.00;1.00;;;;;-147.17;100.00;50340.06;5008094;28;51282;-58
2022/01/09 02:27:55;;;;;;;;;0.00;0.00;;;;;-147.17;100.00;50363.69;5008291;28;51199;-59
2022/01/09 02:30:20;;;;;;;;;0.00;0.00;;;;;-147.17;100.00;50375.50;5010116;28;51392;-59
2022/01/09 02:32:46;;;;;;;;;1.00;1.00;;;;;-147.17;100.00;50377.47;5011178;28;52704;-59
2022/01/09 02:35:11;;;;;;;;;2.33;1.00;;;;;-147.17;100.00;50363.69;5008443;28;51132;-58
2022/01/09 02:37:37;;;;;;;;;1.00;0.00;;;;;-147.17;100.00;50351.88;5021188;28;51045;-58
2022/01/09 02:40:04;;;;;;;;;0.00;0.00;;;;;-147.17;100.00;50367.63;5006922;28;51039;-58
2022/01/09 02:42:31;;;;;;;;;2.00;1.00;;;;;-147.17;100.00;50391.25;5010905;28;51123;-58
2022/01/09 02:44:56;;;;;;;;;0.00;0.00;;;;;-147.17;100.00;50355.81;5009325;28;51412;-57
2022/01/09 02:47:23;;;;;;;;;0.67;0.00;;;;;-147.17;100.00;50383.38;5014137;28;51175;-57
2022/01/09 02:49:52;;;;;;;;;0.33;0.00;;;;;-147.17;100.00;50407.00;5013075;28;51168;-57
2022/01/09 02:57:34;;;;;;;;;1.00;1.00;;;;;-147.17;100.00;50385.34;5023901;28;51386;-58
2022/01/09 02:59:59;;;;;;;;;0.00;0.00;;;;;-147.17;100.00;50389.28;5024728;28;50995;-58
2022/01/09 03:02:25;;;;;;;;;0.00;0.00;;;;;-147.17;100.00;50405.03;5018693;28;51149;-58
2022/01/09 03:04:50;;;;;;;;;0.00;0.00;;;;;-147.17;100.00;50385.34;5012837;28;52173;-58
2022/01/09 03:07:16;;;;;;;;;1.67;0.67;;;;;-147.17;100.00;50375.50;5016452;28;51066;-58
2022/01/09 03:09:41;;;;;;;;;0.67;0.67;;;;;-147.17;100.00;50377.47;5019446;28;51058;-58
2022/01/09 03:12:10;;;;;;;;;2.00;1.00;;;;;-147.17;100.00;50371.56;5023019;28;51308;-58
2022/01/09 03:14:35;;;;;;;;;0.00;0.00;;;;;-147.17;100.00;50379.44;5016421;28;51156;-58
2022/01/09 03:17:01;;;;;;;;;0.00;0.00;;;;;-147.17;100.00;50379.44;5023596;28;51657;-58
2022/01/09 03:19:26;;;;;;;;;1.00;0.00;;;;;-147.17;100.00;50379.44;5032521;28;51433;-58
2022/01/09 03:21:51;;;;;;;;;1.00;0.00;;;;;-147.17;100.00;50407.00;5019809;28;51113;-58
2022/01/09 03:24:17;;;;;;;;;1.00;0.00;;;;;-147.17;100.00;50387.31;5027465;28;52580;-58
2022/01/09 03:26:43;;;;;;;;;0.00;0.00;;;;;-147.17;100.00;50369.59;5026681;28;51153;-58
2022/01/09 03:29:08;;;;;;;;;1.00;0.00;;;;;-147.17;100.00;50359.75;5017999;28;51240;-58
2022/01/09 03:31:33;;;;;;;;;1.00;0.33;;;;;-147.17;100.00;50365.66;5020024;28;50987;-58
2022/01/09 03:33:59;;;;;;;;;0.00;0.00;;;;;-147.17;100.00;50371.56;5020598;28;51973;-58
2022/01/09 03:36:24;;;;;;;;;1.67;1.00;;;;;-147.17;100.00;50383.38;5023888;28;52767;-57
2022/01/09 03:38:49;;;;;;;;;0.33;0.00;;;;;-147.17;100.00;50383.38;5028965;28;51234;-57
2022/01/09 03:41:15;;;;;;;;;2.00;0.00;;;;;-147.17;100.00;50357.78;5025721;28;51027;-56
2022/01/09 03:43:40;;;;;;;;;0.33;0.00;;;;;-147.17;100.00;50355.81;5034923;28;51507;-57
2022/01/09 03:46:05;;;;;;;;;1.50;1.00;;;;;-147.17;100.00;50351.88;5024659;28;51205;-57
2022/01/09 03:48:32;;;;;;;;;1.75;0.00;;;;;-147.17;100.00;50347.94;5032006;28;51010;-57
2022/01/09 03:50:57;;;;;;;;;0.00;0.00;;;;;-147.17;100.00;50320.38;5032662;28;51129;-57
2022/01/09 03:53:22;;;;;;;;;0.00;0.00;;;;;-147.17;100.00;50342.03;5021842;28;51121;-57
2022/01/09 03:55:48;;;;;;;;;0.00;0.00;;;;;-147.17;100.00;50359.75;5029473;28;51111;-58
2022/01/09 03:58:13;;;;;;;;;1.67;0.67;;;;;-147.17;100.00;50344.00;5014097;28;51174;-58
2022/01/09 04:00:39;;;;;;;;;0.33;0.33;;;;;-147.17;100.00;50351.88;5021520;28;51219;-56
2022/01/09 04:03:04;;;;;;;;;0.00;0.00;;;;;-147.17;100.00;50332.19;5029642;28;54008;-57
2022/01/09 04:05:29;;;;;;;;;1.00;1.00;;;;;-147.17;100.00;50332.19;5019789;28;51084;-58
2022/01/09 04:07:55;;;;;;;;;1.67;0.00;;;;;-147.17;100.00;50326.28;5017066;28;51291;-58
2022/01/09 04:10:22;;;;;;;;;0.75;0.00;;;;;-147.17;100.00;50334.16;5031735;28;51252;-57
2022/01/09 04:12:52;;;;;;;;;0.00;0.00;;;;;-147.17;100.00;50355.81;5019177;28;52560;-57
2022/01/09 04:15:18;;;;;;;;;0.00;0.00;;;;;-147.17;100.00;50308.59;5018166;28;51665;-57
2022/01/09 04:17:51;;;;;;;;;0.50;0.00;;;;;-147.17;100.00;50324.31;5019374;28;51186;-57
2022/01/09 04:20:18;;;;;;;;;0.00;0.00;;;;;-147.17;100.00;50340.06;5027774;28;50967;-57
2022/01/09 04:22:44;;;;;;;;;1.25;0.75;;;;;-147.17;100.00;50328.25;5020393;28;51835;-57
2022/01/09 04:25:10;;;;;;;;;1.00;0.00;;;;;-147.17;100.00;50324.31;5020464;28;51143;-58
2022/01/09 04:27:36;;;;;;;;;1.00;0.00;;;;;-147.17;100.00;50322.34;5020946;28;51073;-58
2022/01/09 04:30:03;;;;;;;;;0.00;0.00;;;;;-147.17;100.00;50332.19;5022146;28;50956;-58
2022/01/09 04:32:29;;;;;;;;;0.00;0.00;;;;;-147.17;100.00;50345.97;5033787;28;53257;-58
2022/01/09 04:34:54;;;;;;;;;0.00;0.00;;;;;-147.17;100.00;50332.19;5017999;28;50905;-58
2022/01/09 04:37:20;;;;;;;;;2.00;0.00;;;;;-147.17;100.00;50324.31;5029434;28;51153;-58
2022/01/09 04:39:50;;;;;;;;;0.25;0.00;;;;;-147.17;100.00;50322.34;5031367;28;51367;-58
2022/01/09 04:42:15;;;;;;;;;0.00;0.00;;;;;-147.17;100.00;50336.13;5023895;28;51878;-58
2022/01/09 04:44:41;;;;;;;;;1.67;0.67;;;;;-147.17;100.00;50316.44;5028575;28;50962;-58
2022/01/09 04:47:11;;;;;;;;;0.67;0.67;;;;;-147.17;100.00;50328.25;5022317;28;51066;-58
2022/01/09 04:49:40;;;;;;;;;0.67;0.00;;;;;-147.17;100.00;50322.34;5021394;28;51186;-58
2022/01/09 04:52:10;;;;;;;;;1.00;0.00;;;;;-147.17;100.00;50328.25;5024728;28;52020;-58
2022/01/09 04:54:36;;;;;;;;;0.00;0.00;;;;;-147.17;100.00;50310.56;5016807;28;51193;-58
2022/01/09 04:57:02;;;;;;;;;0.00;0.00;;;;;-147.17;100.00;50273.16;5022528;28;51256;-58
2022/01/09 04:59:28;;;;;;;;;0.00;0.00;;;;;-147.17;100.00;50308.59;5026047;28;50965;-58
2022/01/09 05:01:53;;;;;;;;;1.33;0.00;;;;;-147.17;100.00;50292.84;5021563;28;52098;-58
2022/01/09 05:04:19;;;;;;;;;0.00;0.00;;;;;-147.17;100.00;50312.53;5034690;28;51196;-58
2022/01/09 05:06:44;;;;;;;;;0.00;0.00;;;;;-147.17;100.00;50304.66;5031203;28;51288;-58
2022/01/09 05:09:10;;;;;;;;;0.00;0.00;;;;;-147.17;100.00;50273.16;5034873;28;50905;-58
2022/01/09 05:11:36;;;;;;;;;1.00;0.00;;;;;-147.17;100.00;50330.22;5043069;28;52823;-58
2022/01/09 05:14:02;;;;;;;;;0.00;0.00;;;;;-147.17;100.00;50277.09;5014745;28;50981;-58
2022/01/09 05:16:27;;;;;;;;;0.00;0.00;;;;;-147.17;100.00;50316.44;5022248;28;51142;-58
2022/01/09 05:18:58;;;;;;;;;0.50;0.00;;;;;-147.17;100.00;50306.63;5017122;28;51368;-58
2022/01/09 05:21:23;;;;;;;;;0.00;0.00;;;;;-147.17;100.00;50324.31;5024661;28;51784;-58
2022/01/09 05:23:49;;;;;;;;;0.00;0.00;;;;;-147.17;100.00;50300.72;5033599;28;51031;-58
2022/01/09 05:26:14;;;;;;;;;0.00;0.00;;;;;-147.17;100.00;50288.91;5030475;28;51134;-58
2022/01/09 05:28:40;;;;;;;;;0.33;0.00;;;;;-147.17;100.00;50302.69;5029273;28;51419;-58
2022/01/09 05:31:05;;;;;;;;;0.67;0.33;;;;;-147.17;100.00;50308.59;5017374;28;51147;-58
2022/01/09 05:33:31;;;;;;;;;1.00;0.00;;;;;-147.17;100.00;50308.59;5013300;28;51137;-58
2022/01/09 05:35:56;;;;;;;;;1.00;0.67;;;;;-147.17;100.00;50314.47;5024283;28;51288;-58
2022/01/09 05:38:22;;;;;;;;;0.33;0.00;;;;;-147.17;100.00;50261.34;5031314;28;51292;-58
2022/01/09 05:40:47;;;;;;;;;0.00;0.00;;;;;-147.17;100.00;50304.66;5027344;28;51261;-58
2022/01/09 05:43:13;;;;;;;;;0.33;0.33;;;;;-147.17;100.00;50273.16;5018785;28;51056;-58
2022/01/09 05:45:39;;;;;;;;;1.00;0.00;;;;;-147.17;100.00;50340.06;5013652;28;51202;-58
2022/01/09 05:48:06;;;;;;;;;1.00;1.00;;;;;-147.17;100.00;50281.03;5027534;28;51253;-58
2022/01/09 05:50:32;;;;;;;;;1.00;0.25;;;;;-147.17;100.00;50296.78;5031226;28;51819;-58
2022/01/09 05:52:58;;;;;;;;;1.25;1.00;;;;;-147.17;100.00;50277.09;5032283;28;51243;-59
2022/01/09 05:55:23;;;;;;;;;1.00;1.00;;;;;-147.17;100.00;50300.72;5023577;28;51635;-58
2022/01/09 05:57:48;;;;;;;;;2.00;1.00;;;;;-147.17;100.00;50312.53;5026020;28;51148;-58
2022/01/09 06:00:15;;;;;;;;;0.33;0.33;;;;;-147.17;100.00;50300.72;5030315;28;51833;-58
2022/01/09 06:02:40;;;;;;;;;0.00;0.00;;;;;-147.17;100.00;50277.09;5017223;28;51033;-58
2022/01/09 06:05:07;;;;;;;;;0.00;0.00;;;;;-147.17;100.00;50273.16;5025712;28;51092;-58
2022/01/09 06:07:32;;;;;;;;;1.67;1.00;;;;;-147.17;100.00;50302.69;5020327;28;51034;-58
2022/01/09 06:09:58;;;;;;;;;1.00;0.33;;;;;-147.17;100.00;50265.28;5029161;28;51812;-59
2022/01/09 06:12:23;;;;;;;;;1.00;1.00;;;;;-147.17;100.00;50273.16;5030033;28;51140;-57
2022/01/09 06:14:48;;;;;;;;;1.67;1.67;;;;;-147.17;100.00;50277.09;5031949;28;51147;-57
2022/01/09 06:17:14;;;;;;;;;0.00;0.00;;;;;-147.17;100.00;50284.97;5021129;28;52402;-57
2022/01/09 06:19:39;;;;;;;;;1.00;0.00;;;;;-147.17;100.00;50294.81;5030325;28;51750;-57
2022/01/09 06:22:05;;;;;;;;;1.00;1.00;;;;;-147.17;100.00;50296.78;5020409;28;51238;-57
2022/01/09 06:24:30;;;;;;;;;1.00;0.00;;;;;-147.17;100.00;50304.66;5015057;28;51405;-57
2022/01/09 06:26:56;;;;;;;;;1.33;1.00;;;;;-147.17;100.00;50292.84;5026101;28;51889;-58
2022/01/09 06:29:21;;;;;;;;;0.75;0.00;;;;;-147.17;100.00;50277.09;5014297;28;51942;-57
2022/01/09 06:31:46;;;;;;;;;2.00;1.00;;;;;-147.17;100.00;50347.94;5008484;28;51886;-57
2022/01/09 06:34:13;;;;;;;;;3.00;0.00;;;;;-147.17;100.00;50298.75;5033325;28;51221;-57
2022/01/09 06:36:39;;;;;;;;;0.00;0.00;;;;;-147.17;100.00;50312.53;5024718;28;51022;-57
2022/01/09 06:39:05;;;;;;;;;1.00;0.00;;;;;-147.17;100.00;50306.63;5012880;28;50940;-57
2022/01/09 06:41:31;;;;;;;;;1.00;0.00;;;;;-147.17;100.00;50288.91;5022297;28;50998;-57
2022/01/09 06:43:57;;;;;;;;;3.33;1.00;;;;;-147.17;100.00;50332.19;5031148;28;51130;-57
2022/01/09 06:46:22;;;;;;;;;0.00;0.00;;;;;-147.17;100.00;50300.72;5013875;28;50972;-57
2022/01/09 06:48:47;;;;;;;;;0.67;0.00;;;;;-147.17;100.00;50349.91;5030165;28;51851;-58
2022/01/09 06:51:13;;;;;;;;;1.00;0.00;;;;;-147.17;100.00;50308.59;5025218;28;51184;-57
2022/01/09 06:53:38;;;;;;;;;1.67;0.00;;;;;-147.17;100.00;50312.53;5011852;28;51004;-56
2022/01/09 06:56:05;;;;;;;;;1.00;0.00;;;;;-147.17;100.00;50304.66;5025601;28;51160;-57
2022/01/09 06:58:30;;;;;;;;;0.00;0.00;;;;;-147.17;100.00;50314.47;5024930;28;52121;-57
2022/01/09 07:00:56;;;;;;;;;0.00;0.00;;;;;-147.17;100.00;50351.88;5028393;28;51211;-57
2022/01/09 07:03:22;;;;;;;;;0.00;0.00;;;;;-147.17;100.00;50308.59;5016750;28;51099;-57
2022/01/09 07:05:48;;;;;;;;;0.00;0.00;;;;;-147.17;100.00;50318.41;5030271;28;51151;-57
2022/01/09 07:08:13;;;;;;;;;1.00;0.00;;;;;-147.17;100.00;50288.91;5016815;28;51002;-57
2022/01/09 07:10:38;;;;;;;;;0.00;0.00;;;;;-147.17;100.00;50316.44;5024342;28;51136;-57
2022/01/09 07:13:04;;;;;;;;;0.00;0.00;;;;;-147.17;100.00;50316.44;5031630;28;51201;-57
2022/01/09 07:15:29;;;;;;;;;7.00;5.00;;;;;-147.17;100.00;50320.38;5022636;28;51370;-58
2022/01/09 07:17:54;;;;;;;;;0.00;0.00;;;;;-147.17;100.00;50308.59;5014806;28;50964;-58
2022/01/09 07:20:20;;;;;;;;;0.67;0.00;;;;;-147.17;100.00;50342.03;5015556;28;52293;-58
2022/01/09 07:22:45;;;;;;;;;0.00;0.00;;;;;-147.17;100.00;50283.00;5019300;28;51261;-58
2022/01/09 07:25:11;;;;;;;;;0.00;0.00;;;;;-147.17;100.00;50332.19;5022030;28;51005;-58
2022/01/09 07:27:36;;;;;;;;;0.00;0.00;;;;;-147.17;100.00;50355.81;5026898;28;51811;-58
2022/01/09 07:30:03;;;;;;;;;0.00;0.00;;;;;-147.17;100.00;50300.72;5019886;28;51061;-58
2022/01/09 07:32:28;;;;;;;;;0.00;0.00;;;;;-147.17;100.00;50340.06;5015421;28;51155;-58
2022/01/09 07:34:57;;;;;;;;;1.00;1.00;;;;;-147.17;100.00;50304.66;5013799;28;51264;-58
2022/01/09 07:37:22;;;;;;;;;0.00;0.00;;;;;-147.17;100.00;50316.44;5031563;28;52748;-57
2022/01/09 07:39:50;;;;;;;;;0.00;0.00;;;;;-147.17;100.00;50306.63;5031521;28;51001;-57
2022/01/09 07:42:15;;;;;;;;;0.00;0.00;;;;;-147.17;100.00;50308.59;5023074;28;51136;-57
2022/01/09 07:44:40;;;;;;;;;1.00;1.00;;;;;-147.17;100.00;50312.53;5025020;28;51149;-57
2022/01/09 07:47:06;;;;;;;;;0.00;0.00;;;;;-147.17;100.00;50316.44;5021370;28;53959;-58
2022/01/09 07:49:31;;;;;;;;;0.00;0.00;;;;;-147.17;100.00;50300.72;5027766;28;52452;-57
2022/01/09 07:51:57;;;;;;;;;0.00;0.00;;;;;-147.17;100.00;50294.81;5023254;28;51617;-57
2022/01/09 07:54:22;;;;;;;;;0.00;0.00;;;;;-147.17;100.00;50302.69;5020244;28;51158;-58
2022/01/09 07:56:48;;;;;;;;;0.00;0.00;;;;;-147.17;100.00;50316.44;5027798;28;52735;-57
2022/01/09 07:59:13;;;;;;;;;2.00;0.00;;;;;-147.17;100.00;50318.41;5031890;28;51109;-57
2022/01/09 08:01:38;;;;;;;;;1.00;1.00;;;;;-147.17;100.00;50286.94;5028701;28;51447;-57
2022/01/09 08:04:04;;;;;;;;;2.00;1.00;;;;;-147.17;100.00;50271.19;5021258;28;50983;-57
2022/01/09 08:06:29;;;;;;;;;0.25;0.25;;;;;-147.17;100.00;50265.28;5021916;28;51903;-58
2022/01/09 08:08:55;;;;;;;;;2.25;1.75;;;;;-147.17;100.00;50275.13;5012750;28;50969;-58
2022/01/09 08:11:22;;;;;;;;;1.25;0.25;;;;;-147.17;100.00;50281.03;5026988;28;51207;-58
2022/01/09 08:13:48;;;;;;;;;0.00;0.00;;;;;-147.17;100.00;50279.06;5029937;28;51216;-56
2022/01/09 08:16:15;;;;;;;;;1.00;0.00;;;;;-147.17;100.00;50328.25;5019494;28;51368;-58
2022/01/09 08:18:40;;;;;;;;;1.00;0.00;;;;;-147.17;100.00;50273.16;5034719;28;51141;-57
2022/01/09 08:21:05;;;;;;;;;0.00;0.00;;;;;-147.17;100.00;50281.03;5025902;28;51617;-57
2022/01/09 08:23:31;;;;;;;;;2.00;1.00;;;;;-147.17;100.00;50298.75;5015620;28;50909;-58
2022/01/09 08:25:56;;;;;;;;;3.75;2.75;;;;;-147.17;100.00;50283.00;5018971;28;52078;-58
2022/01/09 08:28:22;;;;;;;;;0.67;0.67;;;;;-147.17;100.00;50257.41;5032986;28;51054;-58
2022/01/09 08:30:47;;;;;;;;;6.75;5.00;;;;;-147.17;100.00;50292.84;5030286;28;51535;-58
2022/01/09 08:33:13;;;;;;;;;1.50;1.00;;;;;-147.17;100.00;50277.09;5032552;28;51081;-58
2022/01/09 08:35:38;;;;;;;;;1.00;1.00;;;;;-147.17;100.00;50269.22;5024040;28;51161;-57
2022/01/09 08:38:03;;;;;;;;;2.25;1.00;;;;;-147.17;100.00;50284.97;5015339;28;51205;-58
2022/01/09 08:40:29;;;;;;;;;1.00;1.00;;;;;-147.17;100.00;50296.78;5019889;28;51213;-58
2022/01/09 08:42:54;;;;;;;;;1.00;0.00;;;;;-147.17;100.00;50273.16;5024448;28;51150;-58
2022/01/09 08:45:22;;;;;;;;;0.00;0.00;;;;;-147.17;100.00;50298.75;5023961;28;52034;-58
2022/01/09 08:47:47;;;;;;;;;1.00;1.00;;;;;-147.17;100.00;50320.38;5023577;28;51141;-59
2022/01/09 08:50:14;;;;;;;;;0.00;0.00;;;;;-147.17;100.00;50304.66;5021080;28;50983;-59
2022/01/09 08:52:40;;;;;;;;;0.00;0.00;;;;;-147.17;100.00;50312.53;5026537;28;51282;-58
2022/01/09 08:55:07;;;;;;;;;2.00;1.00;;;;;-147.17;100.00;50320.38;5016069;28;51752;-58
2022/01/09 08:57:32;;;;;;;;;1.75;1.00;;;;;-147.17;100.00;50300.72;5028929;28;51460;-58
2022/01/09 08:59:58;;;;;;;;;0.00;0.00;;;;;-147.17;100.00;50277.09;5022836;28;52250;-58
2022/01/09 09:02:23;;;;;;;;;0.67;0.00;;;;;-147.17;100.00;50312.53;5020258;28;51094;-59
2022/01/09 09:04:49;;;;;;;;;1.67;1.00;;;;;-147.17;100.00;50308.59;5014312;28;52597;-58
2022/01/09 09:07:18;;;;;;;;;1.00;1.00;;;;;-147.17;100.00;50334.16;5019334;28;51035;-57
2022/01/09 09:09:43;;;;;;;;;1.00;1.00;;;;;-147.17;100.00;50283.00;5016944;28;51213;-58
2022/01/09 09:12:09;;;;;;;;;0.33;0.33;;;;;-147.17;100.00;50324.31;5026955;28;51344;-58
2022/01/09 09:14:34;;;;;;;;;1.00;1.00;;;;;-147.17;100.00;50324.31;5014852;28;53105;-59
2022/01/09 09:17:00;;;;;;;;;0.00;0.00;;;;;-147.17;100.00;50304.66;5021957;28;51299;-59
2022/01/09 09:19:25;;;;;;;;;1.00;0.00;;;;;-147.17;100.00;50292.84;5018876;28;51050;-59
2022/01/09 09:21:51;;;;;;;;;1.00;1.00;;;;;-147.17;100.00;50318.41;5028382;28;51127;-60
2022/01/09 09:24:17;;;;;;;;;1.00;1.00;;;;;-147.17;100.00;50328.25;5017473;28;51302;-60
2022/01/09 09:26:43;;;;;;;;;1.33;1.00;;;;;-147.17;100.00;50314.47;5027741;28;51419;-59
2022/01/09 09:29:09;;;;;;;;;1.00;1.00;;;;;-147.17;100.00;50300.72;5026904;28;51307;-58
2022/01/09 09:31:34;;;;;;;;;1.00;1.00;;;;;-147.17;100.00;50279.06;5019407;28;51168;-57
2022/01/09 09:34:00;;;;;;;;;2.00;1.00;;;;;-147.17;100.00;50271.19;5024996;28;51030;-57
2022/01/09 09:36:26;;;;;;;;;2.00;1.00;;;;;-147.17;100.00;50265.28;5026969;28;51116;-56
2022/01/09 09:38:52;;;;;;;;;0.33;0.33;;;;;-147.17;100.00;50257.41;5018314;28;51262;-55
2022/01/09 09:41:21;;;;;;;;;2.00;1.00;;;;;-147.17;100.00;50281.03;5017281;28;51754;-57
2022/01/09 09:43:46;;;;;;;;;2.25;2.25;;;;;-147.17;100.00;50290.88;5019702;28;52059;-53
2022/01/09 09:46:13;;;;;;;;;0.00;0.00;;;;;-147.17;100.00;50231.81;5020875;28;51093;-55
2022/01/09 09:48:39;;;;;;;;;2.00;1.00;;;;;-147.17;100.00;50243.63;5013639;28;51167;-58
2022/01/09 09:51:04;;;;;;;;;0.00;0.00;;;;;-147.17;100.00;50249.53;5019281;28;51171;-55
2022/01/09 09:53:29;;;;;;;;;2.50;2.25;;;;;-147.17;100.00;50249.53;5013689;28;52017;-55
2022/01/09 09:55:55;;;;;;;;;1.75;1.75;;;;;-147.17;100.00;50259.38;5016279;28;51192;-56
2022/01/09 09:58:22;;;;;;;;;2.75;2.75;;;;;-147.17;100.00;50304.66;5017273;28;50972;-57
2022/01/09 10:00:52;;;;;;;;;4.00;4.00;;;;;-147.17;100.00;50273.16;5030331;28;51059;-56
2022/01/09 10:03:33;;;;;;;;;2.50;2.50;;;;;-147.17;100.00;50273.16;5017570;28;51172;-56
2022/01/09 10:05:59;;;;;;;;;2.00;1.00;;;;;-147.17;100.00;50279.06;5027760;28;51086;-55
2022/01/09 10:08:48;;;;;;;;;2.00;2.00;;;;;-147.17;100.00;50288.91;5018587;28;51314;-57
2022/01/09 10:11:18;;;;;;;;;1.50;1.50;;;;;-147.17;100.00;50288.91;5021143;28;51473;-58
2022/01/09 10:13:44;;;;;;;;;4.25;2.75;;;;;-147.17;100.00;50271.19;5031827;28;51894;-57
2022/01/09 10:16:11;;;;;;;;;2.25;2.00;;;;;-147.17;100.00;50312.53;5026290;28;51043;-58
2022/01/09 10:18:45;;;;;;;;;2.00;2.00;;;;;-147.17;100.00;50310.56;5016323;28;51178;-59
2022/01/09 10:21:19;;;;;;;;;3.00;2.00;;;;;-147.17;100.00;50328.25;5033452;28;51267;-58
2022/01/09 10:23:59;;;;;;;;;3.25;3.25;;;;;-147.17;100.00;50284.97;5020008;28;50995;-57
2022/01/09 10:26:25;;;;;;;;;3.25;3.00;;;;;-147.17;100.00;50296.78;5015790;28;51373;-57
2022/01/09 10:28:50;;;;;;;;;5.25;3.50;;;;;-147.17;100.00;50277.09;5022901;28;50995;-59
2022/01/09 10:31:18;;;;;;;;;3.00;2.50;;;;;-147.17;100.00;50316.44;5025691;28;51338;-60
2022/01/09 10:34:01;;;;;;;;;4.00;3.00;;;;;-147.17;100.00;50281.03;5022726;28;51772;-58
2022/01/09 10:36:39;;;;;;;;;5.00;4.00;;;;;-147.17;100.00;50306.63;5019786;28;51119;-58
2022/01/09 10:39:07;;;;;;;;;2.75;2.75;;;;;-147.17;100.00;50296.78;5011977;28;51207;-61
2022/01/09 10:41:47;;;;;;;;;3.75;3.00;;;;;-147.17;100.00;50286.94;5023837;28;51271;-60
2022/01/09 10:44:18;;;;;;;;;4.00;3.50;;;;;-147.17;100.00;50296.78;5026120;28;53712;-59
2022/01/09 10:46:56;;;;;;;;;4.00;3.75;;;;;-147.17;100.00;50286.94;5025422;28;51142;-61
2022/01/09 10:49:22;;;;;;;;;1.00;1.00;;;;;-147.17;100.00;50277.09;5031039;28;51391;-61
2022/01/09 10:51:48;;;;;;;;;6.50;6.50;;;;;-147.17;100.00;50296.78;5021523;28;51204;-60
2022/01/09 10:54:28;;;;;;;;;4.33;3.33;;;;;-147.17;100.00;50296.78;5016766;28;51058;-67
2022/01/09 10:57:13;;;;;;;;;6.50;5.75;;;;;-147.17;100.00;50316.44;5021010;28;51173;-66
2022/01/09 10:59:39;;;;;;;;;6.00;3.00;;;;;-147.17;100.00;50298.75;5009990;28;51123;-66
2022/01/09 11:02:05;;;;;;;;;2.00;2.00;;;;;-147.17;100.00;50298.75;5014363;28;51621;-65
2022/01/09 11:04:31;;;;;;;;;1.00;1.00;;;;;-147.17;100.00;50288.91;5024092;28;51813;-66
2022/01/09 11:06:56;;;;;;;;;4.75;3.00;;;;;-147.17;100.00;50302.69;5012944;28;51636;-66
2022/01/09 11:09:25;;;;;;;;;6.75;6.25;;;;;-147.17;100.00;50308.59;5020228;28;51259;-65
2022/01/09 11:11:52;;;;;;;;;6.00;6.00;;;;;-147.17;100.00;50306.63;5013003;28;51394;-65